Time;durP1;ratioP1;P1;durP2;ratioP2;P2;SDS_P1;SDS_P2;PMS_P1;PMS_P2;Temp;Humidity;BMP_temperature;BMP_pressure;BME280_temperature;BME280_humidity;BME280_pressure;Samples;Min_cycle;Max_cycle;Signal;HPM_P1;HPM_P2
2022/03/18 00:02:14;;;;;;;30.52;13.68;;;;;;;;;;5136131;27;20026;-51
2022/03/18 00:04:40;;;;;;;25.65;11.82;;;;;;;;;;5135849;27;20058;-49
2022/03/18 00:07:07;;;;;;;29.02;12.57;;;;;;;;;;5136183;27;20019;-53
2022/03/18 00:09:33;;;;;;;37.55;16.92;;;;;;;;;;5135810;27;20023;-51
2022/03/18 00:12:00;;;;;;;25.65;13.00;;;;;;;;;;5135780;27;20072;-48
2022/03/18 00:14:26;;;;;;;27.15;12.25;;;;;;;;;;5135857;27;20023;-51
2022/03/18 00:16:52;;;;;;;25.25;12.07;;;;;;;;;;5135532;27;20019;-46
2022/03/18 00:19:18;;;;;;;28.77;12.38;;;;;;;;;;5135577;27;20471;-45
2022/03/18 00:21:44;;;;;;;22.95;11.38;;;;;;;;;;5116954;27;20039;-52
2022/03/18 00:24:10;;;;;;;26.98;13.30;;;;;;;;;;5135589;27;20026;-49
2022/03/18 00:26:37;;;;;;;24.55;11.13;;;;;;;;;;5134779;27;20489;-52
2022/03/18 00:29:05;;;;;;;18.38;10.15;;;;;;;;;;5135454;27;20033;-50
2022/03/18 00:31:31;;;;;;;21.67;10.40;;;;;;;;;;5135415;27;20054;-50
2022/03/18 00:33:57;;;;;;;23.40;11.10;;;;;;;;;;5135377;27;20019;-51
2022/03/18 00:36:24;;;;;;;31.45;13.40;;;;;;;;;;5135474;27;20027;-48
2022/03/18 00:38:50;;;;;;;21.38;10.60;;;;;;;;;;5135421;27;20088;-51
2022/03/18 00:41:16;;;;;;;21.50;10.30;;;;;;;;;;5135336;27;20015;-48
2022/03/18 00:43:44;;;;;;;31.23;13.30;;;;;;;;;;5135086;27;20474;-45
2022/03/18 00:46:10;;;;;;;24.20;10.25;;;;;;;;;;5135312;27;20035;-47
2022/03/18 00:54:08;;;;;;;23.75;11.85;;;;;;;;;;5114977;28;20138;-48
2022/03/18 00:56:36;;;;;;;26.17;12.90;;;;;;;;;;5114139;28;20055;-47
2022/03/18 00:59:02;;;;;;;18.05;10.70;;;;;;;;;;5111068;28;20031;-50
2022/03/18 01:01:29;;;;;;;23.90;12.13;;;;;;;;;;5114345;28;20019;-50
2022/03/18 01:03:56;;;;;;;27.55;12.27;;;;;;;;;;5114041;28;20019;-51
2022/03/18 01:06:22;;;;;;;23.60;10.05;;;;;;;;;;5095426;28;20041;-46
2022/03/18 01:08:50;;;;;;;20.08;9.82;;;;;;;;;;5114123;28;20020;-52
2022/03/18 01:11:16;;;;;;;20.92;10.07;;;;;;;;;;5114157;28;20041;-52
2022/03/18 01:13:42;;;;;;;21.58;10.57;;;;;;;;;;5114449;28;20419;-52
2022/03/18 01:16:08;;;;;;;22.05;10.48;;;;;;;;;;5114154;28;20069;-52
2022/03/18 01:18:34;;;;;;;18.70;10.27;;;;;;;;;;5113646;28;20034;-51
2022/03/18 01:21:01;;;;;;;20.42;11.07;;;;;;;;;;5113923;28;20032;-48
2022/03/18 01:23:27;;;;;;;21.85;10.02;;;;;;;;;;5113938;28;20024;-51
2022/03/18 01:25:54;;;;;;;23.60;11.13;;;;;;;;;;5113913;28;20467;-52
2022/03/18 01:28:20;;;;;;;21.58;10.43;;;;;;;;;;5113801;28;20016;-48
2022/03/18 01:30:46;;;;;;;23.77;11.93;;;;;;;;;;5113909;28;20115;-51
2022/03/18 01:33:14;;;;;;;19.70;9.90;;;;;;;;;;5113784;28;20020;-54
2022/03/18 01:35:41;;;;;;;19.77;11.38;;;;;;;;;;5114021;28;20508;-51
2022/03/18 01:38:09;;;;;;;21.23;10.73;;;;;;;;;;5113785;28;20027;-51
2022/03/18 01:40:35;;;;;;;18.23;10.65;;;;;;;;;;5113664;28;20020;-52
2022/03/18 01:43:01;;;;;;;20.10;10.52;;;;;;;;;;5113494;28;20058;-48
2022/03/18 01:45:27;;;;;;;22.13;10.85;;;;;;;;;;5113564;28;20063;-45
2022/03/18 01:47:54;;;;;;;23.67;10.85;;;;;;;;;;5113363;28;20043;-51
2022/03/18 01:50:22;;;;;;;25.17;12.65;;;;;;;;;;5113678;28;20479;-51
2022/03/18 01:52:50;;;;;;;35.72;16.40;;;;;;;;;;5113734;28;20047;-49
2022/03/18 01:55:17;;;;;;;22.17;12.00;;;;;;;;;;5113724;28;20155;-50
2022/03/18 01:57:45;;;;;;;25.88;12.43;;;;;;;;;;5113605;28;20111;-51
2022/03/18 02:00:11;;;;;;;23.48;11.65;;;;;;;;;;5113677;28;20027;-52
2022/03/18 02:02:37;;;;;;;26.02;11.13;;;;;;;;;;5113456;28;20421;-50
2022/03/18 02:05:05;;;;;;;23.60;11.50;;;;;;;;;;5113443;28;20373;-53
2022/03/18 02:07:31;;;;;;;18.33;10.50;;;;;;;;;;5113735;28;20026;-53
2022/03/18 02:10:00;;;;;;;19.67;10.55;;;;;;;;;;5113451;28;20156;-51
2022/03/18 02:12:26;;;;;;;20.88;10.77;;;;;;;;;;5113369;28;20407;-52
2022/03/18 02:14:52;;;;;;;23.75;10.90;;;;;;;;;;5113566;28;20077;-52
2022/03/18 02:17:19;;;;;;;22.42;10.95;;;;;;;;;;5113269;28;20034;-53
2022/03/18 02:19:46;;;;;;;19.73;9.88;;;;;;;;;;5113392;28;20077;-53
2022/03/18 02:22:19;;;;;;;22.73;11.10;;;;;;;;;;5113393;28;20055;-52
2022/03/18 02:24:46;;;;;;;18.85;10.68;;;;;;;;;;5113398;28;20127;-52
2022/03/18 02:27:13;;;;;;;17.90;10.45;;;;;;;;;;5113035;28;20103;-51
2022/03/18 02:29:39;;;;;;;21.65;10.82;;;;;;;;;;5094978;28;20075;-52
2022/03/18 02:32:07;;;;;;;19.98;10.13;;;;;;;;;;5113393;28;20062;-52
2022/03/18 02:34:34;;;;;;;23.48;11.50;;;;;;;;;;5113024;28;20030;-51
2022/03/18 02:37:00;;;;;;;20.80;10.35;;;;;;;;;;5113320;28;20429;-53
2022/03/18 02:39:26;;;;;;;22.05;10.40;;;;;;;;;;5113235;28;20024;-54
2022/03/18 02:41:52;;;;;;;23.92;11.93;;;;;;;;;;5113063;28;20027;-50
2022/03/18 02:44:20;;;;;;;27.42;13.07;;;;;;;;;;5113154;28;20023;-51
2022/03/18 02:46:46;;;;;;;21.52;10.95;;;;;;;;;;5094393;28;20064;-49
2022/03/18 02:49:13;;;;;;;21.83;10.50;;;;;;;;;;5112975;28;20538;-52
2022/03/18 02:51:39;;;;;;;25.42;11.82;;;;;;;;;;5116462;28;20081;-45
2022/03/18 02:54:05;;;;;;;22.23;11.65;;;;;;;;;;5116915;28;20024;-51
2022/03/18 02:56:32;;;;;;;23.95;11.25;;;;;;;;;;5098165;28;20403;-46
2022/03/18 02:58:58;;;;;;;25.25;12.75;;;;;;;;;;5116876;28;20028;-51
2022/03/18 03:01:25;;;;;;;21.63;11.60;;;;;;;;;;5116837;28;20047;-48
2022/03/18 03:03:51;;;;;;;19.92;10.32;;;;;;;;;;5116482;28;20031;-52
2022/03/18 03:09:02;;;;;;;17.70;10.43;;;;;;;;;;5116585;28;20054;-52
2022/03/18 03:11:28;;;;;;;21.45;11.48;;;;;;;;;;5116424;28;20031;-51
2022/03/18 03:13:55;;;;;;;20.23;10.70;;;;;;;;;;5116285;28;20092;-48
2022/03/18 03:16:23;;;;;;;19.33;10.55;;;;;;;;;;5116436;28;20055;-49
2022/03/18 03:18:49;;;;;;;24.20;12.95;;;;;;;;;;5116224;28;20060;-52
2022/03/18 03:21:16;;;;;;;17.35;9.75;;;;;;;;;;5116272;28;20077;-55
2022/03/18 03:23:42;;;;;;;21.60;11.30;;;;;;;;;;5116169;28;20055;-52
2022/03/18 03:26:09;;;;;;;20.98;11.82;;;;;;;;;;5116104;28;20067;-52
2022/03/18 03:28:35;;;;;;;19.25;11.23;;;;;;;;;;5115974;28;20019;-54
2022/03/18 03:31:03;;;;;;;18.92;10.35;;;;;;;;;;5116289;28;20059;-52
2022/03/18 03:33:29;;;;;;;19.95;10.57;;;;;;;;;;5115882;28;20024;-52
2022/03/18 03:35:58;;;;;;;21.80;10.55;;;;;;;;;;5116242;28;20023;-51
2022/03/18 03:38:25;;;;;;;21.63;10.45;;;;;;;;;;5115844;28;20042;-52
2022/03/18 03:40:56;;;;;;;22.50;10.68;;;;;;;;;;5115864;28;20016;-52
2022/03/18 03:43:22;;;;;;;21.52;10.35;;;;;;;;;;5116011;28;20055;-49
2022/03/18 03:45:48;;;;;;;22.60;11.02;;;;;;;;;;5115869;28;20111;-47
2022/03/18 03:48:14;;;;;;;20.23;10.63;;;;;;;;;;5115422;28;20039;-48
2022/03/18 03:50:41;;;;;;;22.40;10.50;;;;;;;;;;5115740;28;20023;-51
2022/03/18 03:53:07;;;;;;;19.52;10.18;;;;;;;;;;5115546;28;20019;-46
2022/03/18 03:55:39;;;;;;;17.00;10.30;;;;;;;;;;5115676;28;20110;-49
2022/03/18 03:58:06;;;;;;;;;;;;;;;;;;5115989;28;20051;-51
2022/03/18 04:00:36;;;;;;;20.20;9.73;;;;;;;;;;5115458;28;19914;-47
2022/03/18 04:03:04;;;;;;;21.92;11.57;;;;;;;;;;5114736;28;20050;-50
2022/03/18 04:05:30;;;;;;;28.58;11.57;;;;;;;;;;5115148;28;20059;-50
2022/03/18 04:07:56;;;;;;;23.42;11.57;;;;;;;;;;5115121;28;20020;-52
2022/03/18 04:10:22;;;;;;;26.25;12.32;;;;;;;;;;5115538;28;20035;-47
2022/03/18 04:12:48;;;;;;;21.63;11.07;;;;;;;;;;5115048;28;20106;-50
2022/03/18 04:15:16;;;;;;;25.85;11.30;;;;;;;;;;5115299;28;20033;-52
2022/03/18 04:17:47;;;;;;;22.83;10.73;;;;;;;;;;5115101;28;20031;-52
2022/03/18 04:20:14;;;;;;;20.30;10.82;;;;;;;;;;5114891;28;20059;-52
2022/03/18 04:22:40;;;;;;;24.25;11.10;;;;;;;;;;5115076;28;20020;-51
2022/03/18 04:25:07;;;;;;;26.52;10.57;;;;;;;;;;5114969;28;20467;-49
2022/03/18 04:27:33;;;;;;;22.30;10.20;;;;;;;;;;5114884;28;20039;-52
2022/03/18 04:29:59;;;;;;;18.65;9.70;;;;;;;;;;5115256;28;20015;-50
2022/03/18 04:32:25;;;;;;;19.13;10.23;;;;;;;;;;5114957;28;20068;-50
2022/03/18 04:34:51;;;;;;;17.77;9.73;;;;;;;;;;5114722;28;20015;-49
2022/03/18 04:37:17;;;;;;;17.02;8.95;;;;;;;;;;5114770;28;20043;-50
2022/03/18 04:39:43;;;;;;;20.83;8.07;;;;;;;;;;5114849;28;20019;-52
2022/03/18 04:42:10;;;;;;;24.00;9.75;;;;;;;;;;5114856;28;20054;-52
2022/03/18 04:44:36;;;;;;;17.27;8.77;;;;;;;;;;5114693;28;20020;-50
2022/03/18 04:47:02;;;;;;;17.90;8.30;;;;;;;;;;5114579;28;20023;-49
2022/03/18 04:49:28;;;;;;;21.58;8.20;;;;;;;;;;5114294;28;20523;-51
2022/03/18 04:51:54;;;;;;;15.93;8.23;;;;;;;;;;5114397;28;20072;-49
2022/03/18 04:54:20;;;;;;;18.50;7.93;;;;;;;;;;5114495;28;20023;-51
2022/03/18 04:59:31;;;;;;;17.33;8.30;;;;;;;;;;5114343;28;20494;-49
2022/03/18 05:01:57;;;;;;;14.30;7.93;;;;;;;;;;5114400;28;20106;-45
2022/03/18 05:04:23;;;;;;;17.13;7.60;;;;;;;;;;5114128;28;20042;-49
2022/03/18 05:06:49;;;;;;;23.00;11.18;;;;;;;;;;5114238;28;20023;-53
2022/03/18 05:09:16;;;;;;;16.58;8.50;;;;;;;;;;5114214;28;20097;-53
2022/03/18 05:11:42;;;;;;;20.92;8.80;;;;;;;;;;5114240;28;20066;-52
2022/03/18 05:14:08;;;;;;;26.23;10.57;;;;;;;;;;5113923;28;20020;-53
2022/03/18 05:16:36;;;;;;;16.27;7.95;;;;;;;;;;5105043;28;20111;-54
2022/03/18 05:19:02;;;;;;;15.55;7.53;;;;;;;;;;5105517;28;20483;-52
2022/03/18 05:21:29;;;;;;;23.08;7.90;;;;;;;;;;5106691;28;20008;-53
2022/03/18 05:23:57;;;;;;;29.88;12.82;;;;;;;;;;5105695;28;20107;-53
2022/03/18 05:26:23;;;;;;;18.10;8.00;;;;;;;;;;5106070;28;20487;-53
2022/03/18 05:28:49;;;;;;;15.48;6.63;;;;;;;;;;5107913;28;20022;-54
2022/03/18 05:31:15;;;;;;;20.23;8.60;;;;;;;;;;5107871;28;20096;-54
2022/03/18 05:33:43;;;;;;;16.92;7.63;;;;;;;;;;5106485;28;20118;-53
2022/03/18 05:36:12;;;;;;;27.05;9.52;;;;;;;;;;5107543;28;20016;-52
2022/03/18 05:38:38;;;;;;;16.65;8.35;;;;;;;;;;5092890;28;20034;-54
2022/03/18 05:41:04;;;;;;;25.35;10.43;;;;;;;;;;5105249;28;20061;-54
2022/03/18 05:43:30;;;;;;;17.98;8.20;;;;;;;;;;5103726;28;20460;-53
2022/03/18 05:45:58;;;;;;;34.33;14.43;;;;;;;;;;5101909;28;20110;-54
2022/03/18 05:48:24;;;;;;;26.38;11.13;;;;;;;;;;5106684;28;20036;-53
2022/03/18 05:50:51;;;;;;;14.07;7.22;;;;;;;;;;5113436;28;20375;-47
2022/03/18 05:53:18;;;;;;;13.25;6.50;;;;;;;;;;5113925;28;20394;-52
2022/03/18 05:58:29;;;;;;;17.35;6.78;;;;;;;;;;5114126;28;20123;-53
2022/03/18 06:00:55;;;;;;;15.63;6.78;;;;;;;;;;5113520;28;20059;-53
2022/03/18 06:03:22;;;;;;;14.23;6.30;;;;;;;;;;5113415;28;20496;-53
2022/03/18 06:05:48;;;;;;;17.42;6.82;;;;;;;;;;5113516;28;20071;-53
2022/03/18 06:13:43;;;;;;;9.27;5.07;;;;;;;;;;5114026;28;20126;-53
2022/03/18 06:16:09;;;;;;;15.25;5.80;;;;;;;;;;5113308;28;20027;-51
2022/03/18 06:18:35;;;;;;;12.98;6.43;;;;;;;;;;5113770;28;20019;-52
2022/03/18 06:21:05;;;;;;;9.00;4.28;;;;;;;;;;5113446;28;20035;-51
2022/03/18 06:23:31;;;;;;;11.73;5.22;;;;;;;;;;5113541;28;20016;-52
2022/03/18 06:25:57;;;;;;;14.52;6.50;;;;;;;;;;5116112;28;20475;-53
2022/03/18 06:28:23;;;;;;;11.93;5.28;;;;;;;;;;5117359;28;20020;-52
2022/03/18 06:30:51;;;;;;;11.52;5.57;;;;;;;;;;5117262;28;20024;-51
2022/03/18 06:33:17;;;;;;;16.08;5.80;;;;;;;;;;5117425;28;20111;-52
2022/03/18 06:35:45;;;;;;;9.55;4.95;;;;;;;;;;5117081;28;20039;-52
2022/03/18 06:38:11;;;;;;;9.73;4.60;;;;;;;;;;5117093;28;20015;-53
2022/03/18 06:40:37;;;;;;;16.92;5.65;;;;;;;;;;5117213;28;20051;-53
2022/03/18 06:43:03;;;;;;;9.40;5.03;;;;;;;;;;5117369;28;20447;-52
2022/03/18 06:45:29;;;;;;;11.48;5.05;;;;;;;;;;5116768;28;20127;-52
2022/03/18 06:47:55;;;;;;;9.25;4.47;;;;;;;;;;5116896;28;20104;-53
2022/03/18 06:50:24;;;;;;;10.45;5.00;;;;;;;;;;5116772;28;20027;-52
2022/03/18 06:52:50;;;;;;;9.52;4.90;;;;;;;;;;5116905;28;20099;-51
2022/03/18 06:55:16;;;;;;;11.00;4.70;;;;;;;;;;5116762;28;20024;-51
2022/03/18 06:57:43;;;;;;;7.03;4.65;;;;;;;;;;5116747;28;20059;-52
2022/03/18 07:00:14;;;;;;;9.18;5.72;;;;;;;;;;5116597;28;20023;-52
2022/03/18 07:02:40;;;;;;;12.50;5.65;;;;;;;;;;5116644;28;20044;-52
2022/03/18 07:05:12;;;;;;;10.82;5.72;;;;;;;;;;5116422;28;20106;-54
2022/03/18 07:07:40;;;;;;;18.48;6.28;;;;;;;;;;5098039;28;20118;-52
2022/03/18 07:10:06;;;;;;;9.05;4.60;;;;;;;;;;5116330;28;20069;-58
2022/03/18 07:12:33;;;;;;;11.02;4.53;;;;;;;;;;5116525;28;20353;-51
2022/03/18 07:14:59;;;;;;;14.73;5.75;;;;;;;;;;5116029;28;20016;-52
2022/03/18 07:17:59;;;;;;;10.82;5.10;;;;;;;;;;5116289;28;20032;-56
2022/03/18 07:20:18;;;;;;;11.52;5.47;;;;;;;;;;5112880;28;20055;-51
2022/03/18 07:22:44;;;;;;;10.18;4.85;;;;;;;;;;5116157;28;20114;-53
2022/03/18 07:25:10;;;;;;;13.40;5.35;;;;;;;;;;5115909;28;20034;-55
2022/03/18 07:27:36;;;;;;;13.00;6.00;;;;;;;;;;5115971;28;20024;-54
2022/03/18 07:30:05;;;;;;;11.40;5.70;;;;;;;;;;5116412;28;20031;-53
2022/03/18 07:32:32;;;;;;;12.02;5.00;;;;;;;;;;5116048;28;20152;-54
2022/03/18 07:34:58;;;;;;;12.25;5.38;;;;;;;;;;5115848;28;20024;-54
2022/03/18 07:37:26;;;;;;;8.95;5.10;;;;;;;;;;5115454;28;20020;-49
2022/03/18 07:39:52;;;;;;;11.57;5.65;;;;;;;;;;5115669;28;20065;-54
2022/03/18 07:42:18;;;;;;;11.43;5.03;;;;;;;;;;5115651;28;20460;-46
2022/03/18 07:44:44;;;;;;;11.15;5.47;;;;;;;;;;5115832;28;20038;-53
2022/03/18 07:47:13;;;;;;;10.48;5.32;;;;;;;;;;5115541;28;20031;-52
2022/03/18 07:49:39;;;;;;;16.98;6.95;;;;;;;;;;5115591;28;20057;-63
2022/03/18 07:52:05;;;;;;;13.05;5.43;;;;;;;;;;5115604;28;20566;-68
2022/03/18 07:54:31;;;;;;;13.98;6.75;;;;;;;;;;5115399;28;20073;-63
2022/03/18 07:56:57;;;;;;;10.35;5.72;;;;;;;;;;5115321;28;20035;-60
2022/03/18 07:59:23;;;;;;;11.52;5.50;;;;;;;;;;5115415;28;20024;-61
2022/03/18 08:01:49;;;;;;;13.35;5.50;;;;;;;;;;5115561;28;20102;-62
2022/03/18 08:04:16;;;;;;;10.77;4.13;;;;;;;;;;5115263;28;20055;-61
2022/03/18 08:06:43;;;;;;;11.55;4.53;;;;;;;;;;5115036;28;20506;-64
2022/03/18 08:09:09;;;;;;;14.52;6.18;;;;;;;;;;5115354;28;20430;-61
2022/03/18 08:11:35;;;;;;;10.63;4.82;;;;;;;;;;5115051;28;20031;-62
2022/03/18 08:14:02;;;;;;;8.73;5.35;;;;;;;;;;5115303;28;20379;-61
2022/03/18 08:16:28;;;;;;;10.82;5.85;;;;;;;;;;5115308;28;20011;-61
2022/03/18 08:18:56;;;;;;;14.00;6.43;;;;;;;;;;5115396;28;20039;-57
2022/03/18 08:21:23;;;;;;;14.77;6.50;;;;;;;;;;5115025;28;20016;-61
2022/03/18 08:23:49;;;;;;;13.60;6.13;;;;;;;;;;5115173;28;20037;-60
2022/03/18 08:26:16;;;;;;;7.93;5.13;;;;;;;;;;5114867;28;20031;-62
2022/03/18 08:28:43;;;;;;;11.95;6.15;;;;;;;;;;5114964;28;20046;-64
2022/03/18 08:31:09;;;;;;;11.38;6.53;;;;;;;;;;5114882;28;20029;-58
2022/03/18 08:33:35;;;;;;;12.18;5.78;;;;;;;;;;5096798;28;20055;-63
2022/03/18 08:36:01;;;;;;;36.85;14.38;;;;;;;;;;5115098;28;20027;-61
2022/03/18 08:38:28;;;;;;;15.85;7.25;;;;;;;;;;5114677;28;20020;-60
2022/03/18 08:40:54;;;;;;;18.63;9.15;;;;;;;;;;5114606;28;20520;-60
2022/03/18 08:43:20;;;;;;;15.25;6.07;;;;;;;;;;5114884;28;20027;-60
2022/03/18 08:45:46;;;;;;;16.95;8.13;;;;;;;;;;5114470;28;20063;-59
2022/03/18 08:48:12;;;;;;;14.30;7.07;;;;;;;;;;5114146;28;20035;-60
2022/03/18 08:50:38;;;;;;;14.48;7.18;;;;;;;;;;5114409;28;20104;-52
2022/03/18 08:53:09;;;;;;;22.27;10.48;;;;;;;;;;5114442;28;20104;-64
2022/03/18 08:55:35;;;;;;;8.57;5.03;;;;;;;;;;5114284;28;20026;-53
2022/03/18 08:58:02;;;;;;;13.20;5.50;;;;;;;;;;5114237;28;20286;-55
2022/03/18 09:00:29;;;;;;;9.35;5.05;;;;;;;;;;5114268;28;20073;-54
2022/03/18 09:02:55;;;;;;;10.82;5.03;;;;;;;;;;5114052;28;20016;-55
2022/03/18 09:05:22;;;;;;;11.52;5.30;;;;;;;;;;5114140;28;20043;-59
2022/03/18 09:07:50;;;;;;;14.57;5.70;;;;;;;;;;5105965;28;20016;-57
2022/03/18 09:10:16;;;;;;;9.15;5.22;;;;;;;;;;5114241;28;20034;-60
2022/03/18 09:12:46;;;;;;;10.35;5.28;;;;;;;;;;5114028;28;20106;-61
2022/03/18 09:15:12;;;;;;;16.95;6.40;;;;;;;;;;5114082;28;20031;-60
2022/03/18 09:17:38;;;;;;;7.53;4.30;;;;;;;;;;5114411;28;20098;-57
2022/03/18 09:20:06;;;;;;;8.77;4.95;;;;;;;;;;5113764;28;20041;-60
2022/03/18 09:22:32;;;;;;;7.70;4.43;;;;;;;;;;5114147;28;20019;-59
2022/03/18 09:24:59;;;;;;;8.32;5.03;;;;;;;;;;5114187;28;20376;-59
2022/03/18 09:27:25;;;;;;;10.65;4.97;;;;;;;;;;5113757;28;20031;-58
2022/03/18 09:29:51;;;;;;;9.85;5.15;;;;;;;;;;5113732;28;20019;-58
2022/03/18 09:32:17;;;;;;;9.85;4.57;;;;;;;;;;5113931;28;20030;-54
2022/03/18 09:34:43;;;;;;;9.25;5.00;;;;;;;;;;5113787;28;20019;-58
2022/03/18 09:37:09;;;;;;;10.02;4.93;;;;;;;;;;5113718;28;20032;-57
2022/03/18 09:39:37;;;;;;;11.40;6.10;;;;;;;;;;5113566;28;20020;-59
2022/03/18 09:42:04;;;;;;;11.18;4.80;;;;;;;;;;5113693;28;20493;-55
2022/03/18 09:44:36;;;;;;;11.57;5.10;;;;;;;;;;5113548;28;20024;-55
2022/03/18 09:47:03;;;;;;;13.55;5.25;;;;;;;;;;5113795;28;20035;-51
2022/03/18 09:49:29;;;;;;;14.02;5.25;;;;;;;;;;5113439;28;20047;-58
2022/03/18 09:51:58;;;;;;;11.10;5.22;;;;;;;;;;5113721;28;20019;-59
2022/03/18 09:54:25;;;;;;;7.25;4.13;;;;;;;;;;5113709;28;20094;-54
2022/03/18 09:56:51;;;;;;;12.35;5.35;;;;;;;;;;5113815;28;20030;-58
2022/03/18 09:59:19;;;;;;;12.80;5.43;;;;;;;;;;5113376;28;20460;-61
2022/03/18 10:01:45;;;;;;;10.70;4.80;;;;;;;;;;5117822;28;20040;-47
2022/03/18 10:04:12;;;;;;;12.07;5.72;;;;;;;;;;5117917;28;20020;-49
2022/03/18 10:06:42;;;;;;;13.80;6.07;;;;;;;;;;5099754;28;20031;-57
2022/03/18 10:09:08;;;;;;;9.48;4.65;;;;;;;;;;5117598;28;20096;-49
2022/03/18 10:11:43;;;;;;;10.70;5.82;;;;;;;;;;5117812;28;20036;-58
2022/03/18 10:14:11;;;;;;;10.40;5.57;;;;;;;;;;5117767;28;20019;-60
2022/03/18 10:16:41;;;;;;;10.20;5.38;;;;;;;;;;5117684;28;20057;-54
2022/03/18 10:19:12;;;;;;;12.93;6.00;;;;;;;;;;5117398;28;20360;-57
2022/03/18 10:21:54;;;;;;;10.98;5.25;;;;;;;;;;5117362;28;20119;-58
2022/03/18 10:24:27;;;;;;;9.38;5.50;;;;;;;;;;5117247;28;20057;-58
2022/03/18 10:27:08;;;;;;;10.23;5.00;;;;;;;;;;5117467;28;20020;-59
2022/03/18 10:29:44;;;;;;;12.50;4.85;;;;;;;;;;5117405;28;20046;-59
2022/03/18 10:32:11;;;;;;;10.15;5.40;;;;;;;;;;5116998;28;20494;-60
2022/03/18 10:37:23;;;;;;;7.68;4.15;;;;;;;;;;5117495;28;20035;-58
2022/03/18 10:39:52;;;;;;;8.88;4.63;;;;;;;;;;5117103;28;20384;-59
2022/03/18 10:42:20;;;;;;;8.15;4.78;;;;;;;;;;5117130;28;20471;-59
2022/03/18 10:44:55;;;;;;;10.65;5.45;;;;;;;;;;5117006;28;20106;-58
2022/03/18 10:47:26;;;;;;;12.80;5.35;;;;;;;;;;5116985;28;20059;-59
2022/03/18 10:49:54;;;;;;;11.82;5.50;;;;;;;;;;5116876;28;20040;-60
2022/03/18 10:52:23;;;;;;;9.00;4.45;;;;;;;;;;5116971;28;20375;-60
2022/03/18 10:54:51;;;;;;;9.88;5.07;;;;;;;;;;5116971;28;20020;-59
2022/03/18 10:57:17;;;;;;;13.90;6.65;;;;;;;;;;5116834;28;20434;-60
2022/03/18 10:59:43;;;;;;;10.65;5.88;;;;;;;;;;5116728;28;20078;-59
2022/03/18 11:02:12;;;;;;;11.57;5.63;;;;;;;;;;5116755;28;20019;-58
2022/03/18 11:04:41;;;;;;;22.30;8.55;;;;;;;;;;5116610;28;20088;-60
2022/03/18 11:12:37;;;;;;;10.50;5.60;;;;;;;;;;5116728;28;20041;-58
2022/03/18 11:15:04;;;;;;;13.10;5.32;;;;;;;;;;5116810;28;20374;-57
2022/03/18 11:17:32;;;;;;;10.40;5.57;;;;;;;;;;5116259;28;20023;-52
2022/03/18 11:20:01;;;;;;;11.93;6.15;;;;;;;;;;5116455;28;20038;-58
2022/03/18 11:22:27;;;;;;;12.55;6.00;;;;;;;;;;5115900;28;20024;-59
2022/03/18 11:24:54;;;;;;;11.35;5.65;;;;;;;;;;5116386;28;20418;-58
2022/03/18 11:27:20;;;;;;;10.65;5.55;;;;;;;;;;5116105;28;20093;-60
2022/03/18 11:29:46;;;;;;;8.40;5.00;;;;;;;;;;5116372;28;20030;-56
2022/03/18 11:32:12;;;;;;;18.35;7.30;;;;;;;;;;5116297;28;20537;-56
2022/03/18 11:34:52;;;;;;;16.27;5.93;;;;;;;;;;5116321;28;20034;-59
2022/03/18 11:37:21;;;;;;;11.57;5.85;;;;;;;;;;5115786;28;20024;-57
2022/03/18 11:39:48;;;;;;;9.30;5.15;;;;;;;;;;5107388;28;20035;-59
2022/03/18 11:42:18;;;;;;;10.30;5.75;;;;;;;;;;5115812;28;20103;-57
2022/03/18 11:44:44;;;;;;;8.18;5.10;;;;;;;;;;5116101;28;20032;-57
2022/03/18 11:47:31;;;;;;;8.48;5.25;;;;;;;;;;5115907;28;20054;-58
2022/03/18 11:49:58;;;;;;;14.05;5.80;;;;;;;;;;5115746;28;20089;-58
2022/03/18 11:52:25;;;;;;;19.85;6.43;;;;;;;;;;5115638;28;20031;-56
2022/03/18 11:54:51;;;;;;;10.40;5.25;;;;;;;;;;5115820;28;20456;-58
2022/03/18 11:57:33;;;;;;;12.77;5.72;;;;;;;;;;5115894;28;20020;-59
2022/03/18 12:00:00;;;;;;;9.32;5.28;;;;;;;;;;5115867;28;20035;-58
2022/03/18 12:02:39;;;;;;;12.40;6.10;;;;;;;;;;5115731;28;20111;-58
2022/03/18 12:05:06;;;;;;;32.72;9.85;;;;;;;;;;5115365;28;20023;-58
2022/03/18 12:07:48;;;;;;;33.17;10.75;;;;;;;;;;5115368;28;20027;-59
2022/03/18 12:10:18;;;;;;;20.00;9.18;;;;;;;;;;5115372;28;20034;-57
2022/03/18 12:12:48;;;;;;;13.80;7.50;;;;;;;;;;5115068;28;20494;-59
2022/03/18 12:15:17;;;;;;;11.65;6.25;;;;;;;;;;5115733;28;20032;-60
2022/03/18 12:17:50;;;;;;;12.05;5.72;;;;;;;;;;5115350;28;20035;-58
2022/03/18 12:20:21;;;;;;;12.23;6.68;;;;;;;;;;5115034;28;20488;-59
2022/03/18 12:22:48;;;;;;;13.02;6.97;;;;;;;;;;5114584;28;20025;-53
2022/03/18 12:25:14;;;;;;;9.90;5.35;;;;;;;;;;5115055;28;20020;-58
2022/03/18 12:27:41;;;;;;;11.95;6.13;;;;;;;;;;5115089;28;20034;-59
2022/03/18 12:30:08;;;;;;;10.45;6.03;;;;;;;;;;5114677;28;20047;-60
2022/03/18 12:32:38;;;;;;;10.48;5.25;;;;;;;;;;5096179;28;20039;-58
2022/03/18 12:35:04;;;;;;;9.30;5.03;;;;;;;;;;5115016;28;20019;-59
2022/03/18 12:37:31;;;;;;;8.75;5.53;;;;;;;;;;5114857;28;20060;-59
2022/03/18 12:40:14;;;;;;;10.80;6.03;;;;;;;;;;5114856;28;20031;-57
2022/03/18 12:42:46;;;;;;;11.90;6.15;;;;;;;;;;5114547;28;20023;-58
2022/03/18 12:45:14;;;;;;;7.97;5.10;;;;;;;;;;5114846;28;20031;-58
2022/03/18 12:47:41;;;;;;;15.02;6.18;;;;;;;;;;5114482;28;20427;-57
2022/03/18 12:50:10;;;;;;;10.95;5.78;;;;;;;;;;5114700;28;20073;-57
2022/03/18 12:52:43;;;;;;;17.92;6.82;;;;;;;;;;5114368;28;20034;-57
2022/03/18 12:55:10;;;;;;;10.80;5.85;;;;;;;;;;5114394;28;20027;-59
2022/03/18 12:57:44;;;;;;;10.07;5.55;;;;;;;;;;5114415;28;20020;-59
2022/03/18 13:00:12;;;;;;;13.65;6.35;;;;;;;;;;5114482;28;20084;-57
2022/03/18 13:02:41;;;;;;;12.85;6.45;;;;;;;;;;5114419;28;20046;-59
2022/03/18 13:05:07;;;;;;;11.82;6.40;;;;;;;;;;5114282;28;20414;-56
2022/03/18 13:07:34;;;;;;;11.32;6.38;;;;;;;;;;5114296;28;20515;-56
2022/03/18 13:10:03;;;;;;;12.68;6.30;;;;;;;;;;5114009;28;20024;-56
2022/03/18 13:12:30;;;;;;;10.35;5.97;;;;;;;;;;5114344;28;20050;-56
2022/03/18 13:14:56;;;;;;;10.98;5.88;;;;;;;;;;5114285;28;20020;-57
2022/03/18 13:17:36;;;;;;;9.45;5.88;;;;;;;;;;5114189;28;20061;-57
2022/03/18 13:20:05;;;;;;;9.00;5.15;;;;;;;;;;5114068;28;20023;-59
2022/03/18 13:22:31;;;;;;;10.52;5.88;;;;;;;;;;5113662;28;20539;-57
2022/03/18 13:25:01;;;;;;;14.52;7.55;;;;;;;;;;5113904;28;20062;-57
2022/03/18 13:27:27;;;;;;;11.77;6.50;;;;;;;;;;5113785;28;20127;-56
2022/03/18 13:32:51;;;;;;;15.73;6.82;;;;;;;;;;5114047;28;20124;-58
2022/03/18 13:35:18;;;;;;;18.70;7.60;;;;;;;;;;5096862;28;20379;-58
2022/03/18 13:38:02;;;;;;;18.25;9.00;;;;;;;;;;5113762;28;20376;-57
2022/03/18 13:40:28;;;;;;;17.73;8.05;;;;;;;;;;5113837;28;20551;-58
2022/03/18 13:43:06;;;;;;;13.13;6.97;;;;;;;;;;5113742;28;20111;-58
2022/03/18 13:45:33;;;;;;;18.83;9.93;;;;;;;;;;5113439;28;20024;-55
2022/03/18 13:47:59;;;;;;;12.90;7.65;;;;;;;;;;5113906;28;20051;-57
2022/03/18 13:50:25;;;;;;;13.73;7.18;;;;;;;;;;5113930;28;20560;-57
2022/03/18 13:52:52;;;;;;;13.27;7.88;;;;;;;;;;5113802;28;20032;-58
2022/03/18 13:55:32;;;;;;;17.50;8.25;;;;;;;;;;5113554;28;20022;-54
2022/03/18 13:57:59;;;;;;;12.32;5.97;;;;;;;;;;5113619;28;20015;-56
2022/03/18 14:00:26;;;;;;;14.75;7.35;;;;;;;;;;5113503;28;20020;-58
2022/03/18 14:03:04;;;;;;;12.38;6.75;;;;;;;;;;5113483;28;20058;-56
2022/03/18 14:05:33;;;;;;;12.68;7.32;;;;;;;;;;5113398;28;20372;-57
2022/03/18 14:08:00;;;;;;;15.90;7.15;;;;;;;;;;5094749;28;20063;-58
2022/03/18 14:10:36;;;;;;;11.60;5.85;;;;;;;;;;5113540;28;20051;-56
2022/03/18 14:13:02;;;;;;;9.35;5.68;;;;;;;;;;5113502;28;20024;-57
2022/03/18 14:15:36;;;;;;;14.13;6.63;;;;;;;;;;5113478;28;20422;-58
2022/03/18 14:18:08;;;;;;;12.82;6.22;;;;;;;;;;5113321;28;20054;-58
2022/03/18 14:20:35;;;;;;;10.15;5.85;;;;;;;;;;5113224;28;20034;-57
2022/03/18 14:23:18;;;;;;;10.43;6.28;;;;;;;;;;5113260;28;20047;-57
2022/03/18 14:25:47;;;;;;;16.33;8.45;;;;;;;;;;5113194;28;20028;-57
2022/03/18 14:28:29;;;;;;;14.70;7.50;;;;;;;;;;5113239;28;20026;-57
2022/03/18 14:30:58;;;;;;;15.02;7.60;;;;;;;;;;5113315;28;20024;-57
2022/03/18 14:33:26;;;;;;;15.20;7.93;;;;;;;;;;5113706;28;20026;-58
2022/03/18 14:35:53;;;;;;;12.07;6.80;;;;;;;;;;5113058;28;20081;-57
2022/03/18 14:38:20;;;;;;;15.07;7.13;;;;;;;;;;5113075;28;20023;-57
2022/03/18 14:40:46;;;;;;;10.65;6.55;;;;;;;;;;5113315;28;20016;-58
2022/03/18 14:43:15;;;;;;;13.35;7.07;;;;;;;;;;5113242;28;20479;-58
2022/03/18 14:45:41;;;;;;;11.52;6.53;;;;;;;;;;5114095;28;20544;-58
2022/03/18 14:48:08;;;;;;;12.82;6.30;;;;;;;;;;5116838;28;20051;-58
2022/03/18 14:50:40;;;;;;;14.23;6.70;;;;;;;;;;5116898;28;20027;-59
2022/03/18 14:53:10;;;;;;;12.18;7.30;;;;;;;;;;5117056;28;20051;-58
2022/03/18 14:58:22;;;;;;;13.73;7.05;;;;;;;;;;5117274;28;20042;-56
2022/03/18 15:00:52;;;;;;;14.60;7.90;;;;;;;;;;5116968;28;20026;-58
2022/03/18 15:03:19;;;;;;;15.75;7.55;;;;;;;;;;5116640;28;20012;-59
2022/03/18 15:05:45;;;;;;;12.82;6.82;;;;;;;;;;5116696;28;20023;-59